sensor_id;sensor_type;location;lat;lon;timestamp;P1;durP1;ratioP1;P2;durP2;ratioP2
71896;SDS011;59767;51.344;12.362;2022-12-07T00:01:22;19.60;;;10.70;;
71896;SDS011;59767;51.344;12.362;2022-12-07T00:04:28;19.48;;;10.45;;
71896;SDS011;59767;51.344;12.362;2022-12-07T00:07:32;19.85;;;10.80;;
71896;SDS011;59767;51.344;12.362;2022-12-07T00:10:36;17.98;;;9.55;;
71896;SDS011;59767;51.344;12.362;2022-12-07T00:13:40;18.42;;;10.25;;
71896;SDS011;59767;51.344;12.362;2022-12-07T00:16:45;18.52;;;10.00;;
71896;SDS011;59767;51.344;12.362;2022-12-07T00:19:49;18.45;;;9.80;;
71896;SDS011;59767;51.344;12.362;2022-12-07T00:22:53;19.02;;;10.23;;
71896;SDS011;59767;51.344;12.362;2022-12-07T00:26:02;18.83;;;10.40;;
71896;SDS011;59767;51.344;12.362;2022-12-07T00:29:20;18.73;;;10.07;;
71896;SDS011;59767;51.344;12.362;2022-12-07T00:32:26;19.23;;;10.48;;
71896;SDS011;59767;51.344;12.362;2022-12-07T00:35:30;16.90;;;9.57;;
71896;SDS011;59767;51.344;12.362;2022-12-07T00:38:35;20.00;;;10.60;;
71896;SDS011;59767;51.344;12.362;2022-12-07T00:41:40;18.58;;;10.73;;
71896;SDS011;59767;51.344;12.362;2022-12-07T00:44:44;19.23;;;10.70;;
71896;SDS011;59767;51.344;12.362;2022-12-07T00:47:48;19.98;;;10.80;;
71896;SDS011;59767;51.344;12.362;2022-12-07T00:50:52;19.38;;;11.05;;
71896;SDS011;59767;51.344;12.362;2022-12-07T00:53:56;20.75;;;10.65;;
71896;SDS011;59767;51.344;12.362;2022-12-07T00:57:00;19.85;;;10.93;;
71896;SDS011;59767;51.344;12.362;2022-12-07T01:00:04;20.17;;;10.77;;
71896;SDS011;59767;51.344;12.362;2022-12-07T01:03:10;20.83;;;11.52;;
71896;SDS011;59767;51.344;12.362;2022-12-07T01:06:17;22.60;;;11.80;;
71896;SDS011;59767;51.344;12.362;2022-12-07T01:09:22;19.75;;;11.02;;
71896;SDS011;59767;51.344;12.362;2022-12-07T01:12:26;21.35;;;11.25;;
71896;SDS011;59767;51.344;12.362;2022-12-07T01:15:31;19.15;;;10.90;;
71896;SDS011;59767;51.344;12.362;2022-12-07T01:18:35;21.92;;;11.73;;
71896;SDS011;59767;51.344;12.362;2022-12-07T01:21:40;22.13;;;11.27;;
71896;SDS011;59767;51.344;12.362;2022-12-07T01:24:44;22.50;;;11.65;;
71896;SDS011;59767;51.344;12.362;2022-12-07T01:27:50;18.85;;;10.25;;
71896;SDS011;59767;51.344;12.362;2022-12-07T01:30:57;18.13;;;10.60;;
71896;SDS011;59767;51.344;12.362;2022-12-07T01:34:07;18.50;;;10.27;;
71896;SDS011;59767;51.344;12.362;2022-12-07T01:37:12;23.00;;;11.13;;
71896;SDS011;59767;51.344;12.362;2022-12-07T01:40:16;21.73;;;11.48;;
71896;SDS011;59767;51.344;12.362;2022-12-07T01:43:19;20.50;;;11.30;;
71896;SDS011;59767;51.344;12.362;2022-12-07T01:46:24;19.98;;;9.90;;
71896;SDS011;59767;51.344;12.362;2022-12-07T01:52:48;19.63;;;10.60;;
71896;SDS011;59767;51.344;12.362;2022-12-07T01:55:54;21.48;;;11.32;;
71896;SDS011;59767;51.344;12.362;2022-12-07T01:59:01;18.83;;;10.65;;
71896;SDS011;59767;51.344;12.362;2022-12-07T02:02:07;18.42;;;10.57;;
71896;SDS011;59767;51.344;12.362;2022-12-07T02:05:15;19.98;;;10.05;;
71896;SDS011;59767;51.344;12.362;2022-12-07T02:08:21;23.10;;;11.07;;
71896;SDS011;59767;51.344;12.362;2022-12-07T02:11:25;19.67;;;10.27;;
71896;SDS011;59767;51.344;12.362;2022-12-07T02:14:30;18.65;;;9.35;;
71896;SDS011;59767;51.344;12.362;2022-12-07T02:17:40;21.38;;;10.88;;
71896;SDS011;59767;51.344;12.362;2022-12-07T02:24:24;21.40;;;10.68;;
71896;SDS011;59767;51.344;12.362;2022-12-07T02:30:57;22.13;;;10.35;;
71896;SDS011;59767;51.344;12.362;2022-12-07T02:34:09;18.95;;;10.25;;
71896;SDS011;59767;51.344;12.362;2022-12-07T02:40:54;21.83;;;10.40;;
71896;SDS011;59767;51.344;12.362;2022-12-07T02:44:04;19.42;;;10.27;;
71896;SDS011;59767;51.344;12.362;2022-12-07T02:47:13;19.35;;;10.40;;
71896;SDS011;59767;51.344;12.362;2022-12-07T02:50:20;20.15;;;10.93;;
71896;SDS011;59767;51.344;12.362;2022-12-07T02:56:44;19.08;;;10.18;;
71896;SDS011;59767;51.344;12.362;2022-12-07T03:00:05;21.02;;;10.40;;
71896;SDS011;59767;51.344;12.362;2022-12-07T03:03:12;19.70;;;10.30;;
71896;SDS011;59767;51.344;12.362;2022-12-07T03:06:30;21.80;;;9.73;;
71896;SDS011;59767;51.344;12.362;2022-12-07T03:09:44;17.08;;;8.70;;
71896;SDS011;59767;51.344;12.362;2022-12-07T03:16:17;19.20;;;9.15;;
71896;SDS011;59767;51.344;12.362;2022-12-07T03:19:24;19.63;;;9.73;;
71896;SDS011;59767;51.344;12.362;2022-12-07T03:22:31;16.35;;;8.50;;
71896;SDS011;59767;51.344;12.362;2022-12-07T03:25:43;16.80;;;8.38;;
71896;SDS011;59767;51.344;12.362;2022-12-07T03:28:52;16.95;;;8.07;;
71896;SDS011;59767;51.344;12.362;2022-12-07T03:32:04;15.75;;;7.95;;
71896;SDS011;59767;51.344;12.362;2022-12-07T03:35:25;15.07;;;7.82;;
71896;SDS011;59767;51.344;12.362;2022-12-07T03:38:34;17.52;;;8.10;;
71896;SDS011;59767;51.344;12.362;2022-12-07T03:41:57;15.50;;;8.45;;
71896;SDS011;59767;51.344;12.362;2022-12-07T03:45:04;17.25;;;8.50;;
71896;SDS011;59767;51.344;12.362;2022-12-07T03:48:14;15.30;;;8.00;;
71896;SDS011;59767;51.344;12.362;2022-12-07T03:58:09;14.32;;;7.15;;
71896;SDS011;59767;51.344;12.362;2022-12-07T04:01:17;16.45;;;7.60;;
71896;SDS011;59767;51.344;12.362;2022-12-07T04:04:25;16.58;;;7.78;;
71896;SDS011;59767;51.344;12.362;2022-12-07T04:07:29;14.73;;;7.38;;
71896;SDS011;59767;51.344;12.362;2022-12-07T04:10:33;15.27;;;7.68;;
71896;SDS011;59767;51.344;12.362;2022-12-07T04:13:38;16.13;;;7.70;;
71896;SDS011;59767;51.344;12.362;2022-12-07T04:17:01;15.35;;;7.65;;
71896;SDS011;59767;51.344;12.362;2022-12-07T04:20:05;17.27;;;8.20;;
71896;SDS011;59767;51.344;12.362;2022-12-07T04:23:09;14.88;;;7.60;;
71896;SDS011;59767;51.344;12.362;2022-12-07T04:26:14;14.05;;;7.25;;
71896;SDS011;59767;51.344;12.362;2022-12-07T04:29:18;16.35;;;8.23;;
71896;SDS011;59767;51.344;12.362;2022-12-07T04:32:23;17.70;;;7.85;;
71896;SDS011;59767;51.344;12.362;2022-12-07T04:35:27;17.35;;;7.70;;
71896;SDS011;59767;51.344;12.362;2022-12-07T04:38:31;15.65;;;7.50;;
71896;SDS011;59767;51.344;12.362;2022-12-07T04:41:36;15.35;;;7.25;;
71896;SDS011;59767;51.344;12.362;2022-12-07T04:44:40;16.08;;;7.72;;
71896;SDS011;59767;51.344;12.362;2022-12-07T04:47:44;15.27;;;7.35;;
71896;SDS011;59767;51.344;12.362;2022-12-07T04:50:48;15.05;;;7.53;;
71896;SDS011;59767;51.344;12.362;2022-12-07T04:53:55;15.35;;;7.30;;
71896;SDS011;59767;51.344;12.362;2022-12-07T04:57:00;16.13;;;7.50;;
71896;SDS011;59767;51.344;12.362;2022-12-07T05:00:04;14.65;;;7.22;;
71896;SDS011;59767;51.344;12.362;2022-12-07T05:03:10;14.55;;;7.63;;
71896;SDS011;59767;51.344;12.362;2022-12-07T05:06:14;15.68;;;7.40;;
71896;SDS011;59767;51.344;12.362;2022-12-07T05:09:18;15.75;;;7.68;;
71896;SDS011;59767;51.344;12.362;2022-12-07T05:12:22;14.25;;;7.75;;
71896;SDS011;59767;51.344;12.362;2022-12-07T05:15:26;14.63;;;7.70;;
71896;SDS011;59767;51.344;12.362;2022-12-07T05:18:30;15.23;;;7.97;;
71896;SDS011;59767;51.344;12.362;2022-12-07T05:21:35;18.33;;;7.38;;
71896;SDS011;59767;51.344;12.362;2022-12-07T05:24:40;15.95;;;8.02;;
71896;SDS011;59767;51.344;12.362;2022-12-07T05:27:44;16.48;;;8.15;;
71896;SDS011;59767;51.344;12.362;2022-12-07T05:30:48;14.98;;;8.48;;
71896;SDS011;59767;51.344;12.362;2022-12-07T05:33:52;14.60;;;8.38;;
71896;SDS011;59767;51.344;12.362;2022-12-07T05:36:56;15.05;;;8.60;;
71896;SDS011;59767;51.344;12.362;2022-12-07T05:40:00;18.00;;;8.88;;
71896;SDS011;59767;51.344;12.362;2022-12-07T05:43:04;14.43;;;8.23;;
71896;SDS011;59767;51.344;12.362;2022-12-07T05:46:09;15.73;;;8.35;;
71896;SDS011;59767;51.344;12.362;2022-12-07T05:49:12;17.67;;;8.60;;
71896;SDS011;59767;51.344;12.362;2022-12-07T05:52:16;17.58;;;9.38;;
71896;SDS011;59767;51.344;12.362;2022-12-07T05:55:21;18.42;;;9.57;;
71896;SDS011;59767;51.344;12.362;2022-12-07T05:58:25;18.55;;;9.07;;
71896;SDS011;59767;51.344;12.362;2022-12-07T06:02:03;17.02;;;8.98;;
71896;SDS011;59767;51.344;12.362;2022-12-07T06:05:09;19.30;;;10.75;;
71896;SDS011;59767;51.344;12.362;2022-12-07T06:08:13;18.33;;;9.65;;
71896;SDS011;59767;51.344;12.362;2022-12-07T06:11:18;19.48;;;10.25;;
71896;SDS011;59767;51.344;12.362;2022-12-07T06:14:41;15.85;;;9.52;;
71896;SDS011;59767;51.344;12.362;2022-12-07T06:17:46;15.95;;;9.65;;
71896;SDS011;59767;51.344;12.362;2022-12-07T06:20:50;19.58;;;10.43;;
71896;SDS011;59767;51.344;12.362;2022-12-07T06:23:54;18.58;;;10.77;;
71896;SDS011;59767;51.344;12.362;2022-12-07T06:26:58;19.00;;;10.82;;
71896;SDS011;59767;51.344;12.362;2022-12-07T06:30:03;19.08;;;10.77;;
71896;SDS011;59767;51.344;12.362;2022-12-07T06:33:10;19.95;;;11.52;;
71896;SDS011;59767;51.344;12.362;2022-12-07T06:36:14;22.63;;;11.98;;
71896;SDS011;59767;51.344;12.362;2022-12-07T06:39:19;21.50;;;12.23;;
71896;SDS011;59767;51.344;12.362;2022-12-07T06:42:28;23.52;;;12.23;;
71896;SDS011;59767;51.344;12.362;2022-12-07T06:45:32;22.83;;;12.88;;
71896;SDS011;59767;51.344;12.362;2022-12-07T06:48:37;22.77;;;12.98;;
71896;SDS011;59767;51.344;12.362;2022-12-07T06:51:41;24.15;;;12.98;;
71896;SDS011;59767;51.344;12.362;2022-12-07T06:54:45;23.13;;;13.63;;
71896;SDS011;59767;51.344;12.362;2022-12-07T06:57:49;23.95;;;12.95;;
71896;SDS011;59767;51.344;12.362;2022-12-07T07:00:53;22.83;;;12.30;;
71896;SDS011;59767;51.344;12.362;2022-12-07T07:03:58;27.08;;;14.15;;
71896;SDS011;59767;51.344;12.362;2022-12-07T07:07:01;26.00;;;13.88;;
71896;SDS011;59767;51.344;12.362;2022-12-07T07:10:05;22.50;;;12.65;;
71896;SDS011;59767;51.344;12.362;2022-12-07T07:13:10;23.65;;;13.52;;
71896;SDS011;59767;51.344;12.362;2022-12-07T07:16:14;25.58;;;14.05;;
71896;SDS011;59767;51.344;12.362;2022-12-07T07:19:18;23.30;;;13.20;;
71896;SDS011;59767;51.344;12.362;2022-12-07T07:22:22;24.10;;;13.40;;
71896;SDS011;59767;51.344;12.362;2022-12-07T07:25:27;22.10;;;13.02;;
71896;SDS011;59767;51.344;12.362;2022-12-07T07:28:31;22.40;;;13.23;;
71896;SDS011;59767;51.344;12.362;2022-12-07T07:31:35;22.75;;;13.15;;
71896;SDS011;59767;51.344;12.362;2022-12-07T07:34:40;20.23;;;11.25;;
71896;SDS011;59767;51.344;12.362;2022-12-07T07:37:44;26.10;;;13.35;;
71896;SDS011;59767;51.344;12.362;2022-12-07T07:40:48;21.08;;;12.00;;
71896;SDS011;59767;51.344;12.362;2022-12-07T07:43:53;24.52;;;12.90;;
71896;SDS011;59767;51.344;12.362;2022-12-07T07:46:57;21.67;;;12.13;;
71896;SDS011;59767;51.344;12.362;2022-12-07T07:50:01;23.17;;;12.07;;
71896;SDS011;59767;51.344;12.362;2022-12-07T07:53:05;21.33;;;11.80;;
71896;SDS011;59767;51.344;12.362;2022-12-07T07:56:09;20.48;;;12.02;;
71896;SDS011;59767;51.344;12.362;2022-12-07T07:59:14;21.73;;;12.20;;
71896;SDS011;59767;51.344;12.362;2022-12-07T08:02:21;22.08;;;12.23;;
71896;SDS011;59767;51.344;12.362;2022-12-07T08:05:26;20.30;;;12.07;;
71896;SDS011;59767;51.344;12.362;2022-12-07T08:08:30;21.25;;;11.75;;
71896;SDS011;59767;51.344;12.362;2022-12-07T08:11:34;21.60;;;12.25;;
71896;SDS011;59767;51.344;12.362;2022-12-07T08:14:40;22.85;;;12.05;;
71896;SDS011;59767;51.344;12.362;2022-12-07T08:17:45;22.77;;;12.00;;
71896;SDS011;59767;51.344;12.362;2022-12-07T08:20:49;24.83;;;12.25;;
71896;SDS011;59767;51.344;12.362;2022-12-07T08:23:53;23.98;;;13.05;;
71896;SDS011;59767;51.344;12.362;2022-12-07T08:26:57;23.45;;;11.23;;
71896;SDS011;59767;51.344;12.362;2022-12-07T08:30:01;24.48;;;11.93;;
71896;SDS011;59767;51.344;12.362;2022-12-07T08:33:06;26.50;;;13.05;;
71896;SDS011;59767;51.344;12.362;2022-12-07T08:36:11;24.27;;;11.63;;
71896;SDS011;59767;51.344;12.362;2022-12-07T08:39:15;23.85;;;12.27;;
71896;SDS011;59767;51.344;12.362;2022-12-07T08:42:34;18.92;;;10.68;;
71896;SDS011;59767;51.344;12.362;2022-12-07T08:45:43;20.15;;;11.43;;
71896;SDS011;59767;51.344;12.362;2022-12-07T08:51:54;22.70;;;10.35;;
71896;SDS011;59767;51.344;12.362;2022-12-07T08:54:58;18.27;;;9.73;;
71896;SDS011;59767;51.344;12.362;2022-12-07T08:58:04;22.30;;;10.18;;
71896;SDS011;59767;51.344;12.362;2022-12-07T09:01:08;19.35;;;9.98;;
71896;SDS011;59767;51.344;12.362;2022-12-07T09:04:13;21.85;;;10.18;;
71896;SDS011;59767;51.344;12.362;2022-12-07T09:07:17;23.17;;;10.35;;
71896;SDS011;59767;51.344;12.362;2022-12-07T09:10:21;23.02;;;10.63;;
71896;SDS011;59767;51.344;12.362;2022-12-07T09:13:26;23.13;;;10.95;;
71896;SDS011;59767;51.344;12.362;2022-12-07T09:16:30;22.73;;;10.52;;
71896;SDS011;59767;51.344;12.362;2022-12-07T09:19:34;23.88;;;10.40;;
71896;SDS011;59767;51.344;12.362;2022-12-07T09:22:39;22.33;;;10.50;;
71896;SDS011;59767;51.344;12.362;2022-12-07T09:25:43;21.85;;;10.80;;
71896;SDS011;59767;51.344;12.362;2022-12-07T09:28:47;25.08;;;11.20;;
71896;SDS011;59767;51.344;12.362;2022-12-07T09:31:51;21.80;;;10.10;;
71896;SDS011;59767;51.344;12.362;2022-12-07T09:34:55;22.40;;;10.30;;
71896;SDS011;59767;51.344;12.362;2022-12-07T09:37:59;21.77;;;9.93;;
71896;SDS011;59767;51.344;12.362;2022-12-07T09:41:07;24.75;;;10.65;;
71896;SDS011;59767;51.344;12.362;2022-12-07T09:44:12;22.05;;;10.75;;
71896;SDS011;59767;51.344;12.362;2022-12-07T09:47:19;20.83;;;11.30;;
71896;SDS011;59767;51.344;12.362;2022-12-07T09:50:24;23.88;;;11.50;;
71896;SDS011;59767;51.344;12.362;2022-12-07T09:53:33;24.33;;;11.50;;
71896;SDS011;59767;51.344;12.362;2022-12-07T09:56:39;25.95;;;12.55;;
71896;SDS011;59767;51.344;12.362;2022-12-07T09:59:43;26.17;;;11.95;;
71896;SDS011;59767;51.344;12.362;2022-12-07T10:02:57;25.08;;;12.02;;
71896;SDS011;59767;51.344;12.362;2022-12-07T10:06:03;21.88;;;10.50;;
71896;SDS011;59767;51.344;12.362;2022-12-07T10:09:09;25.35;;;11.20;;
71896;SDS011;59767;51.344;12.362;2022-12-07T10:12:14;23.33;;;11.57;;
71896;SDS011;59767;51.344;12.362;2022-12-07T10:15:18;25.45;;;11.48;;
71896;SDS011;59767;51.344;12.362;2022-12-07T10:18:30;21.55;;;10.13;;
71896;SDS011;59767;51.344;12.362;2022-12-07T10:21:37;20.73;;;9.27;;
71896;SDS011;59767;51.344;12.362;2022-12-07T10:24:41;22.13;;;9.77;;
71896;SDS011;59767;51.344;12.362;2022-12-07T10:28:00;18.25;;;8.55;;
71896;SDS011;59767;51.344;12.362;2022-12-07T10:31:19;18.15;;;7.50;;
71896;SDS011;59767;51.344;12.362;2022-12-07T10:34:30;17.20;;;7.63;;
71896;SDS011;59767;51.344;12.362;2022-12-07T10:37:45;16.77;;;7.10;;
71896;SDS011;59767;51.344;12.362;2022-12-07T10:40:49;16.88;;;6.80;;
71896;SDS011;59767;51.344;12.362;2022-12-07T10:44:07;54.55;;;23.83;;
71896;SDS011;59767;51.344;12.362;2022-12-07T10:47:29;15.27;;;6.30;;
71896;SDS011;59767;51.344;12.362;2022-12-07T10:53:57;15.98;;;6.47;;
71896;SDS011;59767;51.344;12.362;2022-12-07T10:57:24;16.75;;;7.18;;
71896;SDS011;59767;51.344;12.362;2022-12-07T11:00:36;21.17;;;7.20;;
71896;SDS011;59767;51.344;12.362;2022-12-07T11:07:59;17.77;;;6.03;;
71896;SDS011;59767;51.344;12.362;2022-12-07T11:17:29;10.43;;;4.53;;
71896;SDS011;59767;51.344;12.362;2022-12-07T11:20:45;11.57;;;4.47;;
71896;SDS011;59767;51.344;12.362;2022-12-07T11:37:49;13.88;;;6.18;;
71896;SDS011;59767;51.344;12.362;2022-12-07T11:41:02;15.95;;;6.25;;
71896;SDS011;59767;51.344;12.362;2022-12-07T11:47:51;15.75;;;6.10;;
71896;SDS011;59767;51.344;12.362;2022-12-07T11:51:06;17.20;;;6.32;;
71896;SDS011;59767;51.344;12.362;2022-12-07T11:54:18;17.23;;;6.38;;
71896;SDS011;59767;51.344;12.362;2022-12-07T11:57:35;14.32;;;6.10;;
71896;SDS011;59767;51.344;12.362;2022-12-07T12:00:52;14.10;;;6.63;;
71896;SDS011;59767;51.344;12.362;2022-12-07T12:07:48;13.85;;;6.13;;
71896;SDS011;59767;51.344;12.362;2022-12-07T12:21:26;15.13;;;5.00;;
71896;SDS011;59767;51.344;12.362;2022-12-07T12:24:32;11.60;;;4.03;;
71896;SDS011;59767;51.344;12.362;2022-12-07T12:27:39;12.70;;;3.85;;
71896;SDS011;59767;51.344;12.362;2022-12-07T12:30:44;14.05;;;3.95;;
71896;SDS011;59767;51.344;12.362;2022-12-07T12:33:52;13.45;;;3.50;;
71896;SDS011;59767;51.344;12.362;2022-12-07T12:36:57;8.25;;;3.17;;
71896;SDS011;59767;51.344;12.362;2022-12-07T12:47:38;11.93;;;3.03;;
71896;SDS011;59767;51.344;12.362;2022-12-07T12:54:36;9.00;;;2.40;;
71896;SDS011;59767;51.344;12.362;2022-12-07T12:57:41;9.48;;;2.60;;
71896;SDS011;59767;51.344;12.362;2022-12-07T13:00:45;9.35;;;2.60;;
71896;SDS011;59767;51.344;12.362;2022-12-07T13:03:54;10.48;;;2.40;;
71896;SDS011;59767;51.344;12.362;2022-12-07T13:07:00;9.60;;;2.40;;
71896;SDS011;59767;51.344;12.362;2022-12-07T13:10:04;7.78;;;2.38;;
71896;SDS011;59767;51.344;12.362;2022-12-07T13:20:39;7.38;;;2.00;;
71896;SDS011;59767;51.344;12.362;2022-12-07T13:22:57;7.38;;;2.20;;
71896;SDS011;59767;51.344;12.362;2022-12-07T13:26:12;7.85;;;1.88;;
71896;SDS011;59767;51.344;12.362;2022-12-07T13:29:20;6.80;;;1.90;;
71896;SDS011;59767;51.344;12.362;2022-12-07T13:32:26;6.00;;;1.83;;
71896;SDS011;59767;51.344;12.362;2022-12-07T13:35:34;4.88;;;1.55;;
71896;SDS011;59767;51.344;12.362;2022-12-07T13:38:47;7.03;;;1.65;;
71896;SDS011;59767;51.344;12.362;2022-12-07T13:41:55;7.15;;;2.20;;
71896;SDS011;59767;51.344;12.362;2022-12-07T13:45:17;4.53;;;1.50;;
71896;SDS011;59767;51.344;12.362;2022-12-07T13:48:47;8.57;;;1.80;;
71896;SDS011;59767;51.344;12.362;2022-12-07T13:51:53;6.90;;;2.10;;
71896;SDS011;59767;51.344;12.362;2022-12-07T13:58:04;8.32;;;2.10;;
71896;SDS011;59767;51.344;12.362;2022-12-07T14:01:09;8.35;;;1.92;;
71896;SDS011;59767;51.344;12.362;2022-12-07T14:04:17;8.32;;;2.00;;
71896;SDS011;59767;51.344;12.362;2022-12-07T14:07:26;6.20;;;1.88;;
71896;SDS011;59767;51.344;12.362;2022-12-07T14:20:27;8.32;;;2.00;;
71896;SDS011;59767;51.344;12.362;2022-12-07T14:23:34;8.65;;;2.22;;
71896;SDS011;59767;51.344;12.362;2022-12-07T14:26:39;10.77;;;2.53;;
71896;SDS011;59767;51.344;12.362;2022-12-07T14:29:44;8.48;;;2.13;;
71896;SDS011;59767;51.344;12.362;2022-12-07T14:32:50;6.47;;;1.98;;
71896;SDS011;59767;51.344;12.362;2022-12-07T14:35:57;7.22;;;1.80;;
71896;SDS011;59767;51.344;12.362;2022-12-07T14:39:02;6.55;;;1.88;;
71896;SDS011;59767;51.344;12.362;2022-12-07T14:42:11;7.97;;;2.28;;
71896;SDS011;59767;51.344;12.362;2022-12-07T14:45:17;10.07;;;2.08;;
71896;SDS011;59767;51.344;12.362;2022-12-07T14:48:23;5.90;;;1.80;;
71896;SDS011;59767;51.344;12.362;2022-12-07T14:51:47;5.70;;;1.70;;
71896;SDS011;59767;51.344;12.362;2022-12-07T14:55:25;9.25;;;2.28;;
71896;SDS011;59767;51.344;12.362;2022-12-07T14:58:33;8.73;;;2.20;;
71896;SDS011;59767;51.344;12.362;2022-12-07T15:01:38;17.05;;;7.00;;
71896;SDS011;59767;51.344;12.362;2022-12-07T15:04:42;6.82;;;2.25;;
71896;SDS011;59767;51.344;12.362;2022-12-07T15:07:46;6.78;;;1.77;;
71896;SDS011;59767;51.344;12.362;2022-12-07T15:10:51;9.25;;;1.67;;
71896;SDS011;59767;51.344;12.362;2022-12-07T15:13:56;6.85;;;1.88;;
71896;SDS011;59767;51.344;12.362;2022-12-07T15:17:12;7.10;;;1.80;;
71896;SDS011;59767;51.344;12.362;2022-12-07T15:20:28;10.88;;;1.90;;
71896;SDS011;59767;51.344;12.362;2022-12-07T15:23:35;8.93;;;2.05;;
71896;SDS011;59767;51.344;12.362;2022-12-07T15:26:39;10.93;;;2.17;;
71896;SDS011;59767;51.344;12.362;2022-12-07T15:29:44;6.60;;;1.88;;
71896;SDS011;59767;51.344;12.362;2022-12-07T15:32:51;13.00;;;2.60;;
71896;SDS011;59767;51.344;12.362;2022-12-07T15:35:56;9.10;;;2.60;;
71896;SDS011;59767;51.344;12.362;2022-12-07T15:39:02;11.10;;;2.10;;
71896;SDS011;59767;51.344;12.362;2022-12-07T15:42:21;9.00;;;2.10;;
71896;SDS011;59767;51.344;12.362;2022-12-07T15:45:25;7.93;;;1.85;;
71896;SDS011;59767;51.344;12.362;2022-12-07T15:48:29;7.25;;;1.77;;
71896;SDS011;59767;51.344;12.362;2022-12-07T15:51:34;7.47;;;1.90;;
71896;SDS011;59767;51.344;12.362;2022-12-07T15:54:38;7.25;;;2.05;;
71896;SDS011;59767;51.344;12.362;2022-12-07T15:57:43;8.23;;;2.03;;
71896;SDS011;59767;51.344;12.362;2022-12-07T16:00:47;12.80;;;2.20;;
71896;SDS011;59767;51.344;12.362;2022-12-07T16:03:51;8.45;;;1.90;;
71896;SDS011;59767;51.344;12.362;2022-12-07T16:06:55;10.93;;;2.05;;
71896;SDS011;59767;51.344;12.362;2022-12-07T16:10:00;7.65;;;1.52;;
71896;SDS011;59767;51.344;12.362;2022-12-07T16:13:04;12.52;;;2.10;;
71896;SDS011;59767;51.344;12.362;2022-12-07T16:16:10;7.45;;;1.63;;
71896;SDS011;59767;51.344;12.362;2022-12-07T16:19:17;8.65;;;2.00;;
71896;SDS011;59767;51.344;12.362;2022-12-07T16:22:22;7.20;;;2.00;;
71896;SDS011;59767;51.344;12.362;2022-12-07T16:25:26;8.95;;;2.60;;
71896;SDS011;59767;51.344;12.362;2022-12-07T16:28:30;8.90;;;2.65;;
71896;SDS011;59767;51.344;12.362;2022-12-07T16:31:35;7.72;;;1.98;;
71896;SDS011;59767;51.344;12.362;2022-12-07T16:34:39;11.35;;;2.42;;
71896;SDS011;59767;51.344;12.362;2022-12-07T16:37:43;8.75;;;2.47;;
71896;SDS011;59767;51.344;12.362;2022-12-07T16:40:47;8.98;;;2.42;;
71896;SDS011;59767;51.344;12.362;2022-12-07T16:43:51;13.55;;;2.58;;
71896;SDS011;59767;51.344;12.362;2022-12-07T16:46:55;10.57;;;2.45;;
71896;SDS011;59767;51.344;12.362;2022-12-07T16:50:00;7.88;;;2.40;;
71896;SDS011;59767;51.344;12.362;2022-12-07T16:53:04;9.35;;;2.45;;
71896;SDS011;59767;51.344;12.362;2022-12-07T16:56:09;11.13;;;2.53;;
71896;SDS011;59767;51.344;12.362;2022-12-07T16:59:15;11.38;;;2.85;;
71896;SDS011;59767;51.344;12.362;2022-12-07T17:02:19;9.77;;;2.78;;
71896;SDS011;59767;51.344;12.362;2022-12-07T17:05:23;11.75;;;2.65;;
71896;SDS011;59767;51.344;12.362;2022-12-07T17:08:28;10.18;;;2.88;;
71896;SDS011;59767;51.344;12.362;2022-12-07T17:11:32;12.57;;;3.33;;
71896;SDS011;59767;51.344;12.362;2022-12-07T17:14:36;10.48;;;3.00;;
71896;SDS011;59767;51.344;12.362;2022-12-07T17:17:59;15.88;;;3.30;;
71896;SDS011;59767;51.344;12.362;2022-12-07T17:21:04;10.55;;;3.15;;
71896;SDS011;59767;51.344;12.362;2022-12-07T17:24:11;12.27;;;2.97;;
71896;SDS011;59767;51.344;12.362;2022-12-07T17:27:16;12.55;;;3.15;;
71896;SDS011;59767;51.344;12.362;2022-12-07T17:30:21;8.70;;;2.75;;
71896;SDS011;59767;51.344;12.362;2022-12-07T17:33:25;14.15;;;3.45;;
71896;SDS011;59767;51.344;12.362;2022-12-07T17:36:30;10.73;;;3.00;;
71896;SDS011;59767;51.344;12.362;2022-12-07T17:39:35;10.88;;;2.72;;
71896;SDS011;59767;51.344;12.362;2022-12-07T17:42:39;9.63;;;2.60;;
71896;SDS011;59767;51.344;12.362;2022-12-07T17:45:43;10.85;;;2.97;;
71896;SDS011;59767;51.344;12.362;2022-12-07T17:48:47;12.95;;;2.90;;
71896;SDS011;59767;51.344;12.362;2022-12-07T17:51:51;14.32;;;2.90;;
71896;SDS011;59767;51.344;12.362;2022-12-07T17:55:13;14.23;;;3.20;;
71896;SDS011;59767;51.344;12.362;2022-12-07T17:58:18;12.93;;;3.30;;
71896;SDS011;59767;51.344;12.362;2022-12-07T18:01:22;11.98;;;3.42;;
71896;SDS011;59767;51.344;12.362;2022-12-07T18:04:28;13.00;;;3.10;;
71896;SDS011;59767;51.344;12.362;2022-12-07T18:07:32;12.82;;;3.67;;
71896;SDS011;59767;51.344;12.362;2022-12-07T18:10:36;13.18;;;3.30;;
71896;SDS011;59767;51.344;12.362;2022-12-07T18:13:41;13.25;;;3.00;;
71896;SDS011;59767;51.344;12.362;2022-12-07T18:16:45;12.25;;;3.28;;
71896;SDS011;59767;51.344;12.362;2022-12-07T18:19:49;13.00;;;3.53;;
71896;SDS011;59767;51.344;12.362;2022-12-07T18:22:54;12.63;;;3.17;;
71896;SDS011;59767;51.344;12.362;2022-12-07T18:25:57;10.88;;;3.25;;
71896;SDS011;59767;51.344;12.362;2022-12-07T18:29:02;13.07;;;3.33;;
71896;SDS011;59767;51.344;12.362;2022-12-07T18:32:08;13.45;;;3.30;;
71896;SDS011;59767;51.344;12.362;2022-12-07T18:35:13;12.18;;;3.30;;
71896;SDS011;59767;51.344;12.362;2022-12-07T18:38:17;13.27;;;3.20;;
71896;SDS011;59767;51.344;12.362;2022-12-07T18:41:21;14.00;;;3.10;;
71896;SDS011;59767;51.344;12.362;2022-12-07T18:44:25;10.05;;;3.10;;
71896;SDS011;59767;51.344;12.362;2022-12-07T18:47:29;10.23;;;3.30;;
71896;SDS011;59767;51.344;12.362;2022-12-07T18:50:34;15.20;;;3.70;;
71896;SDS011;59767;51.344;12.362;2022-12-07T18:53:38;12.05;;;3.25;;
71896;SDS011;59767;51.344;12.362;2022-12-07T18:56:42;10.80;;;2.90;;
71896;SDS011;59767;51.344;12.362;2022-12-07T18:59:46;8.95;;;2.70;;
71896;SDS011;59767;51.344;12.362;2022-12-07T19:02:52;12.45;;;3.05;;
71896;SDS011;59767;51.344;12.362;2022-12-07T19:05:57;12.65;;;3.30;;
71896;SDS011;59767;51.344;12.362;2022-12-07T19:09:01;12.93;;;3.75;;
71896;SDS011;59767;51.344;12.362;2022-12-07T19:12:08;10.02;;;3.33;;
71896;SDS011;59767;51.344;12.362;2022-12-07T19:15:15;13.70;;;4.28;;
71896;SDS011;59767;51.344;12.362;2022-12-07T19:18:19;9.82;;;3.60;;
71896;SDS011;59767;51.344;12.362;2022-12-07T19:21:23;11.68;;;3.10;;
71896;SDS011;59767;51.344;12.362;2022-12-07T19:24:27;12.68;;;3.63;;
71896;SDS011;59767;51.344;12.362;2022-12-07T19:27:32;8.75;;;3.08;;
71896;SDS011;59767;51.344;12.362;2022-12-07T19:30:37;8.77;;;3.30;;
71896;SDS011;59767;51.344;12.362;2022-12-07T19:33:41;11.52;;;2.92;;
71896;SDS011;59767;51.344;12.362;2022-12-07T19:36:45;10.13;;;3.15;;
71896;SDS011;59767;51.344;12.362;2022-12-07T19:39:49;12.32;;;4.05;;
71896;SDS011;59767;51.344;12.362;2022-12-07T19:42:55;11.23;;;3.92;;
71896;SDS011;59767;51.344;12.362;2022-12-07T19:46:05;11.68;;;3.85;;
71896;SDS011;59767;51.344;12.362;2022-12-07T19:49:09;12.52;;;3.20;;
71896;SDS011;59767;51.344;12.362;2022-12-07T19:52:16;10.00;;;3.50;;
71896;SDS011;59767;51.344;12.362;2022-12-07T19:55:20;17.58;;;3.50;;